Time;durP1;ratioP1;P1;durP2;ratioP2;P2;SDS_P1;SDS_P2;PMS_P1;PMS_P2;Temp;Humidity;BMP_temperature;BMP_pressure;BME280_temperature;BME280_humidity;BME280_pressure;Samples;Min_cycle;Max_cycle;Signal;HPM_P1;HPM_P2
2022/03/22 00:00:47;;;;;;;;;26.00;24.25;;;;;;;;4927321;28;11552;-76
2022/03/22 00:03:15;;;;;;;;;16.75;16.75;;;;;;;;4934392;28;11633;-77
2022/03/22 00:05:44;;;;;;;;;30.75;24.75;;;;;;;;4938146;28;11764;-77
2022/03/22 00:08:12;;;;;;;;;27.25;20.25;;;;;;;;4940219;28;11604;-77
2022/03/22 00:10:39;;;;;;;;;25.00;23.25;;;;;;;;4944380;28;11606;-76
2022/03/22 00:13:07;;;;;;;;;29.00;25.50;;;;;;;;4943124;28;11605;-77
2022/03/22 00:15:35;;;;;;;;;30.50;26.75;;;;;;;;4956313;28;12838;-77
2022/03/22 00:18:04;;;;;;;;;27.25;23.00;;;;;;;;4941697;28;11655;-76
2022/03/22 00:20:31;;;;;;;;;30.25;27.25;;;;;;;;4941709;28;11787;-76
2022/03/22 00:22:59;;;;;;;;;32.00;26.50;;;;;;;;4941381;28;11548;-76
2022/03/22 00:25:27;;;;;;;;;22.75;21.50;;;;;;;;4942121;28;11652;-76
2022/03/22 00:27:55;;;;;;;;;28.75;26.75;;;;;;;;4943143;28;12995;-76
2022/03/22 00:30:36;;;;;;;;;23.00;20.50;;;;;;;;4941886;28;11777;-76
2022/03/22 00:33:07;;;;;;;;;31.00;27.75;;;;;;;;4928176;28;11702;-77
2022/03/22 00:35:36;;;;;;;;;32.25;27.50;;;;;;;;4960663;28;12378;-76
2022/03/22 00:38:05;;;;;;;;;30.75;26.00;;;;;;;;4941261;28;11652;-76
2022/03/22 00:40:33;;;;;;;;;26.25;23.25;;;;;;;;4942526;28;11595;-76
2022/03/22 00:43:02;;;;;;;;;25.00;24.50;;;;;;;;4940129;28;11606;-76
2022/03/22 00:45:31;;;;;;;;;26.00;22.25;;;;;;;;4945822;28;11597;-76
2022/03/22 00:47:59;;;;;;;;;30.50;30.50;;;;;;;;4942891;28;11635;-77
2022/03/22 00:50:30;;;;;;;;;31.50;28.25;;;;;;;;4937812;28;11617;-76
2022/03/22 00:52:58;;;;;;;;;36.00;28.25;;;;;;;;4948428;28;11601;-76
2022/03/22 00:55:27;;;;;;;;;35.75;29.75;;;;;;;;4940053;28;11780;-75
2022/03/22 00:57:55;;;;;;;;;37.75;37.75;;;;;;;;4942159;28;11595;-76
2022/03/22 01:00:25;;;;;;;;;26.50;23.25;;;;;;;;4940431;28;12746;-76
2022/03/22 01:02:54;;;;;;;;;29.25;27.75;;;;;;;;4940871;28;11685;-76
2022/03/22 01:05:23;;;;;;;;;33.25;30.25;;;;;;;;4942122;28;11738;-76
2022/03/22 01:07:54;;;;;;;;;33.25;28.75;;;;;;;;4934878;28;11629;-76
2022/03/22 01:10:23;;;;;;;;;34.25;29.75;;;;;;;;4941821;28;11577;-76
2022/03/22 01:12:51;;;;;;;;;37.00;31.00;;;;;;;;4948537;28;11595;-76
2022/03/22 01:15:21;;;;;;;;;26.00;22.75;;;;;;;;4940650;28;11719;-76
2022/03/22 01:17:50;;;;;;;;;34.75;31.75;;;;;;;;4941520;28;13500;-76
2022/03/22 01:20:22;;;;;;;;;41.75;36.50;;;;;;;;4915488;28;11636;-77
2022/03/22 01:22:52;;;;;;;;;39.50;32.25;;;;;;;;4939648;28;11666;-77
2022/03/22 01:25:22;;;;;;;;;33.25;25.50;;;;;;;;4938463;28;11759;-77
2022/03/22 01:27:50;;;;;;;;;33.00;30.50;;;;;;;;4938932;28;11725;-78
2022/03/22 01:30:20;;;;;;;;;37.50;29.25;;;;;;;;4959498;28;11693;-77
2022/03/22 01:32:47;;;;;;;;;27.75;24.25;;;;;;;;4966683;28;11623;-77
2022/03/22 01:35:17;;;;;;;;;28.50;23.25;;;;;;;;4939848;28;11667;-77
2022/03/22 01:37:47;;;;;;;;;28.50;22.25;;;;;;;;5001037;28;11657;-78
2022/03/22 01:40:17;;;;;;;;;29.00;25.25;;;;;;;;4941628;28;11698;-77
2022/03/22 01:42:45;;;;;;;;;27.00;21.25;;;;;;;;4945994;28;11638;-78
2022/03/22 01:45:13;;;;;;;;;27.50;24.75;;;;;;;;4940317;28;11568;-77
2022/03/22 01:47:42;;;;;;;;;18.25;18.25;;;;;;;;4939609;28;11662;-77
2022/03/22 01:50:11;;;;;;;;;23.00;20.00;;;;;;;;4966671;28;11583;-77
2022/03/22 01:52:42;;;;;;;;;22.50;21.75;;;;;;;;4940123;28;11590;-78
2022/03/22 01:55:10;;;;;;;;;25.25;23.50;;;;;;;;4938593;28;12323;-76
2022/03/22 01:57:40;;;;;;;;;31.00;26.50;;;;;;;;4941082;28;11589;-76
2022/03/22 02:00:10;;;;;;;;;19.25;18.00;;;;;;;;4939158;28;11627;-76
2022/03/22 02:08:10;;;;;;;;;23.75;21.50;;;;;;;;4941931;28;11589;-75
2022/03/22 02:10:38;;;;;;;;;29.50;25.25;;;;;;;;4945032;28;11664;-77
2022/03/22 02:13:07;;;;;;;;;22.50;20.50;;;;;;;;4963216;28;12459;-76
2022/03/22 02:15:34;;;;;;;;;18.25;17.25;;;;;;;;4939838;28;11599;-76
2022/03/22 02:18:02;;;;;;;;;25.25;21.00;;;;;;;;4934946;28;11653;-76
2022/03/22 02:20:30;;;;;;;;;31.00;25.00;;;;;;;;4948758;28;11613;-76
2022/03/22 02:23:02;;;;;;;;;23.50;22.00;;;;;;;;4932675;28;11600;-76
2022/03/22 02:25:31;;;;;;;;;20.50;20.00;;;;;;;;4938065;28;11631;-76
2022/03/22 02:27:59;;;;;;;;;34.25;25.00;;;;;;;;4940431;28;11800;-76
2022/03/22 02:30:27;;;;;;;;;26.75;24.00;;;;;;;;4973037;28;12237;-76
2022/03/22 02:32:56;;;;;;;;;21.25;19.00;;;;;;;;4935939;28;11701;-77
2022/03/22 02:35:25;;;;;;;;;31.25;24.50;;;;;;;;4935830;28;12848;-76
2022/03/22 02:37:52;;;;;;;;;23.00;20.75;;;;;;;;4940157;28;11606;-77
2022/03/22 02:40:20;;;;;;;;;28.75;21.00;;;;;;;;4939881;28;11642;-76
2022/03/22 02:42:53;;;;;;;;;27.25;25.75;;;;;;;;4939635;28;11646;-76
2022/03/22 02:45:22;;;;;;;;;21.25;20.25;;;;;;;;4936205;28;11595;-76
2022/03/22 02:47:49;;;;;;;;;21.25;16.25;;;;;;;;4953168;28;11671;-77
2022/03/22 02:50:17;;;;;;;;;30.75;25.75;;;;;;;;4941873;28;11647;-76
2022/03/22 02:52:45;;;;;;;;;19.50;19.50;;;;;;;;4938615;28;11961;-76
2022/03/22 02:55:13;;;;;;;;;24.25;24.25;;;;;;;;4939337;28;11807;-77
2022/03/22 02:57:41;;;;;;;;;35.75;26.75;;;;;;;;4939684;28;11665;-79
2022/03/22 03:00:11;;;;;;;;;26.50;24.75;;;;;;;;4938806;28;11591;-77
2022/03/22 03:02:43;;;;;;;;;27.25;23.50;;;;;;;;4939803;28;11578;-78
2022/03/22 03:05:11;;;;;;;;;25.00;21.00;;;;;;;;4937642;28;12307;-78
2022/03/22 03:07:38;;;;;;;;;14.50;11.50;;;;;;;;4940318;28;11621;-78
2022/03/22 03:10:07;;;;;;;;;22.00;17.50;;;;;;;;4970361;28;11570;-77
2022/03/22 03:12:35;;;;;;;;;18.75;18.75;;;;;;;;4932273;28;11608;-78
2022/03/22 03:15:03;;;;;;;;;23.50;19.75;;;;;;;;4939105;28;11644;-77
2022/03/22 03:17:32;;;;;;;;;21.50;17.50;;;;;;;;4938727;28;12388;-77
2022/03/22 03:19:59;;;;;;;;;16.75;13.25;;;;;;;;4939842;28;12406;-77
2022/03/22 03:22:27;;;;;;;;;20.00;20.00;;;;;;;;4936412;28;11594;-78
2022/03/22 03:24:54;;;;;;;;;21.00;19.50;;;;;;;;4939648;28;11645;-78
2022/03/22 03:27:22;;;;;;;;;26.25;24.00;;;;;;;;4961646;28;11586;-76
2022/03/22 03:29:49;;;;;;;;;25.50;24.75;;;;;;;;4984990;28;11611;-77
2022/03/22 03:32:16;;;;;;;;;22.00;21.50;;;;;;;;4938467;28;11502;-77
2022/03/22 03:34:45;;;;;;;;;18.00;16.25;;;;;;;;4938842;28;11722;-77
2022/03/22 03:37:13;;;;;;;;;25.00;23.75;;;;;;;;4938712;28;11565;-77
2022/03/22 03:39:40;;;;;;;;;20.75;17.00;;;;;;;;4926657;28;11590;-77
2022/03/22 03:42:08;;;;;;;;;23.75;20.25;;;;;;;;4942779;28;11577;-77
2022/03/22 03:47:23;;;;;;;;;22.75;22.75;;;;;;;;4952010;28;11589;-76
2022/03/22 03:49:53;;;;;;;;;25.75;22.50;;;;;;;;4935683;28;12415;-76
2022/03/22 03:52:24;;;;;;;;;19.00;17.00;;;;;;;;4941246;28;11674;-77
2022/03/22 03:54:52;;;;;;;;;20.00;16.25;;;;;;;;4940378;28;11591;-77
2022/03/22 03:57:20;;;;;;;;;27.75;25.00;;;;;;;;4942002;28;11604;-75
2022/03/22 03:59:47;;;;;;;;;22.00;20.75;;;;;;;;4940617;28;12506;-77
2022/03/22 04:02:16;;;;;;;;;38.00;22.25;;;;;;;;4939299;28;11614;-77
2022/03/22 04:04:44;;;;;;;;;19.75;19.75;;;;;;;;4944628;28;11601;-73
2022/03/22 04:07:13;;;;;;;;;23.50;21.25;;;;;;;;4936774;28;11578;-77
2022/03/22 04:09:41;;;;;;;;;23.75;20.75;;;;;;;;4948379;28;11595;-77
2022/03/22 04:12:09;;;;;;;;;18.75;16.50;;;;;;;;4942148;28;11611;-77
2022/03/22 04:14:37;;;;;;;;;21.75;19.25;;;;;;;;4930776;28;11599;-78
2022/03/22 04:17:07;;;;;;;;;24.75;22.25;;;;;;;;4943502;28;12346;-77
2022/03/22 04:19:35;;;;;;;;;26.25;20.50;;;;;;;;4965167;28;12446;-76
2022/03/22 04:22:02;;;;;;;;;16.25;16.25;;;;;;;;4943095;28;11579;-78
2022/03/22 04:24:31;;;;;;;;;18.75;18.75;;;;;;;;4947981;28;11598;-78
2022/03/22 04:32:41;;;;;;;;;20.75;20.75;;;;;;;;4937156;28;11717;-78
2022/03/22 04:32:44;;;;;;;;;21.00;17.50;;;;;;;;4916038;28;11560;-76
2022/03/22 04:35:13;;;;;;;;;19.50;19.50;;;;;;;;4941709;28;11581;-77
2022/03/22 04:37:41;;;;;;;;;19.75;18.00;;;;;;;;4940301;28;12930;-77
2022/03/22 04:40:12;;;;;;;;;24.50;22.75;;;;;;;;4941329;28;11624;-76
2022/03/22 04:42:40;;;;;;;;;17.75;17.00;;;;;;;;4940303;28;11629;-76
2022/03/22 04:45:08;;;;;;;;;25.50;24.25;;;;;;;;4965655;28;12136;-75
2022/03/22 04:47:36;;;;;;;;;32.00;28.75;;;;;;;;4945992;28;11588;-75
2022/03/22 04:50:03;;;;;;;;;21.00;19.50;;;;;;;;4939315;28;11592;-75
2022/03/22 04:58:02;;;;;;;;;23.25;16.50;;;;;;;;4941539;28;11540;-76
2022/03/22 05:00:30;;;;;;;;;22.00;19.50;;;;;;;;4942515;28;11503;-77
2022/03/22 05:02:57;;;;;;;;;18.00;18.00;;;;;;;;4975329;28;11599;-78
2022/03/22 05:08:07;;;;;;;;;21.25;18.75;;;;;;;;4941650;28;11583;-78
2022/03/22 05:10:36;;;;;;;;;24.00;23.00;;;;;;;;4948586;28;11563;-78
2022/03/22 05:13:04;;;;;;;;;17.75;17.75;;;;;;;;4942029;28;11565;-77
2022/03/22 05:15:32;;;;;;;;;26.50;20.25;;;;;;;;4940718;28;12046;-77
2022/03/22 05:17:59;;;;;;;;;24.00;21.00;;;;;;;;4952698;28;11621;-76
2022/03/22 05:20:27;;;;;;;;;18.00;16.75;;;;;;;;4940150;28;11584;-76
2022/03/22 05:22:55;;;;;;;;;25.00;23.00;;;;;;;;4935762;28;11653;-76
2022/03/22 05:25:22;;;;;;;;;21.75;20.00;;;;;;;;4940161;28;11626;-76
2022/03/22 05:27:51;;;;;;;;;21.50;21.50;;;;;;;;4939454;28;11580;-75
2022/03/22 05:30:18;;;;;;;;;20.25;20.00;;;;;;;;4931823;28;11592;-74
2022/03/22 05:32:46;;;;;;;;;23.25;23.25;;;;;;;;4939062;28;11572;-85
2022/03/22 05:35:13;;;;;;;;;22.25;20.25;;;;;;;;4945176;28;11561;-81
2022/03/22 05:37:41;;;;;;;;;22.25;22.25;;;;;;;;4925976;28;11652;-85
2022/03/22 05:40:09;;;;;;;;;24.50;23.25;;;;;;;;4938364;28;11587;-83
2022/03/22 05:42:38;;;;;;;;;26.50;24.50;;;;;;;;4938422;28;11607;-83
2022/03/22 05:45:11;;;;;;;;;23.50;19.50;;;;;;;;4942686;28;11608;-85
2022/03/22 05:47:39;;;;;;;;;28.75;22.75;;;;;;;;4943048;28;11578;-83
2022/03/22 05:50:08;;;;;;;;;34.00;24.25;;;;;;;;4934263;28;11582;-86
2022/03/22 05:52:35;;;;;;;;;20.50;19.75;;;;;;;;4941325;28;11584;-87
2022/03/22 05:55:03;;;;;;;;;22.25;22.25;;;;;;;;4937095;28;11706;-86
2022/03/22 05:57:30;;;;;;;;;27.75;26.00;;;;;;;;4944573;28;11592;-84
2022/03/22 05:59:58;;;;;;;;;28.50;24.25;;;;;;;;4944971;28;11599;-86
2022/03/22 06:02:27;;;;;;;;;29.00;24.75;;;;;;;;4952008;28;11558;-86
2022/03/22 06:04:54;;;;;;;;;21.00;21.00;;;;;;;;4943347;28;11685;-86
2022/03/22 06:07:22;;;;;;;;;22.25;18.00;;;;;;;;4949557;28;11602;-88
2022/03/22 06:09:49;;;;;;;;;28.75;26.25;;;;;;;;4950238;28;11571;-88
2022/03/22 06:12:18;;;;;;;;;24.25;21.25;;;;;;;;4922796;28;12399;-88
2022/03/22 06:14:45;;;;;;;;;25.00;21.75;;;;;;;;4935217;28;11614;-90
2022/03/22 06:17:13;;;;;;;;;23.75;20.75;;;;;;;;4937498;28;11591;-84
2022/03/22 06:19:41;;;;;;;;;24.75;24.00;;;;;;;;4935975;28;12135;-84
2022/03/22 06:22:09;;;;;;;;;25.50;23.50;;;;;;;;4920741;28;11567;-83
2022/03/22 06:24:36;;;;;;;;;28.00;22.75;;;;;;;;4929652;28;11665;-85
2022/03/22 06:27:04;;;;;;;;;28.50;26.25;;;;;;;;4924512;28;11585;-84
2022/03/22 06:29:32;;;;;;;;;30.75;28.00;;;;;;;;4928499;28;12296;-84
2022/03/22 06:31:59;;;;;;;;;17.00;12.75;;;;;;;;4934757;28;11556;-84
2022/03/22 06:34:29;;;;;;;;;27.50;25.25;;;;;;;;4936644;28;11652;-83
2022/03/22 06:36:58;;;;;;;;;25.00;25.00;;;;;;;;4937469;28;11631;-82
2022/03/22 06:39:26;;;;;;;;;28.75;23.00;;;;;;;;4935935;28;11557;-82
2022/03/22 06:41:53;;;;;;;;;26.25;26.25;;;;;;;;4932111;28;11631;-82
2022/03/22 06:44:21;;;;;;;;;30.50;30.50;;;;;;;;4940717;28;11606;-84
2022/03/22 06:46:48;;;;;;;;;23.75;23.75;;;;;;;;4940530;28;11712;-84
2022/03/22 06:49:15;;;;;;;;;22.50;22.50;;;;;;;;4941053;28;11646;-84
2022/03/22 06:51:43;;;;;;;;;28.50;24.25;;;;;;;;4938544;28;11595;-83
2022/03/22 06:54:12;;;;;;;;;28.75;28.25;;;;;;;;4941108;28;11656;-83
2022/03/22 06:56:39;;;;;;;;;35.25;29.75;;;;;;;;4938968;28;11725;-83
2022/03/22 06:59:07;;;;;;;;;30.25;29.75;;;;;;;;4950300;28;12444;-82
2022/03/22 07:01:34;;;;;;;;;33.00;32.25;;;;;;;;4938966;28;11622;-82
2022/03/22 07:04:01;;;;;;;;;35.50;35.50;;;;;;;;4940475;28;11666;-83
2022/03/22 07:06:29;;;;;;;;;35.75;29.50;;;;;;;;4963536;28;11704;-83
2022/03/22 07:08:57;;;;;;;;;34.75;32.75;;;;;;;;4945720;28;11595;-82
2022/03/22 07:14:10;;;;;;;;;46.75;36.75;;;;;;;;4928570;28;11549;-79
2022/03/22 07:16:38;;;;;;;;;34.50;27.25;;;;;;;;4991702;28;11662;-78
2022/03/22 07:19:05;;;;;;;;;33.50;33.50;;;;;;;;4940322;28;11723;-79
2022/03/22 07:21:33;;;;;;;;;26.00;26.00;;;;;;;;4926377;28;11681;-79
2022/03/22 07:24:00;;;;;;;;;44.75;36.00;;;;;;;;4941242;28;11626;-78
2022/03/22 07:26:30;;;;;;;;;41.00;36.00;;;;;;;;4941792;28;11614;-79
2022/03/22 07:28:57;;;;;;;;;40.25;37.75;;;;;;;;4952810;28;12531;-79
2022/03/22 07:31:24;;;;;;;;;41.50;37.00;;;;;;;;4938003;28;11562;-75
2022/03/22 07:33:51;;;;;;;;;38.50;35.25;;;;;;;;4936319;28;11577;-76
2022/03/22 07:36:19;;;;;;;;;39.50;32.50;;;;;;;;4938700;28;11575;-76
2022/03/22 07:38:47;;;;;;;;;38.75;37.50;;;;;;;;4938039;28;12470;-76
2022/03/22 07:41:14;;;;;;;;;40.50;37.25;;;;;;;;4938944;28;11650;-76
2022/03/22 07:43:43;;;;;;;;;27.25;24.75;;;;;;;;4937302;28;11637;-76
2022/03/22 07:46:10;;;;;;;;;37.75;36.25;;;;;;;;4939765;28;12340;-77
2022/03/22 07:48:37;;;;;;;;;33.50;32.00;;;;;;;;4938291;28;11864;-77
2022/03/22 07:53:49;;;;;;;;;30.50;26.50;;;;;;;;4925417;28;12387;-76
2022/03/22 07:56:16;;;;;;;;;33.75;33.75;;;;;;;;4934525;28;11691;-75
2022/03/22 07:58:45;;;;;;;;;27.75;27.75;;;;;;;;4938827;29;11508;-76
2022/03/22 08:01:13;;;;;;;;;33.00;29.50;;;;;;;;4936947;28;11530;-77
2022/03/22 08:03:40;;;;;;;;;35.00;30.50;;;;;;;;4939367;28;11555;-75
2022/03/22 08:06:08;;;;;;;;;30.75;30.75;;;;;;;;4940894;28;12540;-75
2022/03/22 08:08:37;;;;;;;;;36.25;31.75;;;;;;;;4934044;29;11551;-76
2022/03/22 08:11:06;;;;;;;;;30.75;28.50;;;;;;;;4948176;28;11695;-74
2022/03/22 08:13:34;;;;;;;;;29.75;26.50;;;;;;;;4938923;28;12249;-76
2022/03/22 08:16:03;;;;;;;;;31.25;26.75;;;;;;;;4940125;28;11602;-74
2022/03/22 08:18:30;;;;;;;;;42.00;36.50;;;;;;;;4938029;29;11282;-74
2022/03/22 08:20:58;;;;;;;;;30.50;30.50;;;;;;;;4938903;28;11319;-75
2022/03/22 08:23:25;;;;;;;;;30.75;27.75;;;;;;;;4937549;28;11258;-75
2022/03/22 08:25:52;;;;;;;;;25.00;24.00;;;;;;;;4958645;28;11084;-76
2022/03/22 08:28:21;;;;;;;;;28.25;27.00;;;;;;;;4930394;28;10982;-74
2022/03/22 08:30:51;;;;;;;;;30.25;27.00;;;;;;;;4947593;28;10644;-75
2022/03/22 08:33:19;;;;;;;;;30.50;27.75;;;;;;;;4942613;28;10734;-76
2022/03/22 08:35:49;;;;;;;;;28.25;26.00;;;;;;;;4955931;28;10651;-77
2022/03/22 08:38:19;;;;;;;;;27.00;26.00;;;;;;;;4940834;28;10882;-74
2022/03/22 08:40:47;;;;;;;;;31.75;27.25;;;;;;;;4940412;28;10473;-76
2022/03/22 08:43:14;;;;;;;;;25.50;24.75;;;;;;;;4940845;28;10456;-75
2022/03/22 08:45:41;;;;;;;;;20.75;20.75;;;;;;;;4925583;28;10540;-74
2022/03/22 08:48:11;;;;;;;;;27.25;27.25;;;;;;;;4921368;28;10439;-75
2022/03/22 08:50:43;;;;;;;;;21.50;21.50;;;;;;;;4922967;29;10385;-74
2022/03/22 08:53:11;;;;;;;;;28.50;27.00;;;;;;;;4920885;29;10154;-77
2022/03/22 08:55:38;;;;;;;;;28.25;24.25;;;;;;;;4919519;28;10142;-77
2022/03/22 08:58:06;;;;;;;;;21.00;17.75;;;;;;;;4921575;28;10186;-81
2022/03/22 09:00:34;;;;;;;;;31.75;26.00;;;;;;;;4917269;28;9987;-75
2022/03/22 09:03:03;;;;;;;;;32.50;29.75;;;;;;;;4920916;28;10114;-74
2022/03/22 09:08:16;;;;;;;;;29.75;26.50;;;;;;;;4929313;29;9989;-75
2022/03/22 09:10:46;;;;;;;;;26.75;25.25;;;;;;;;4923878;28;10119;-74
2022/03/22 09:13:14;;;;;;;;;25.00;25.00;;;;;;;;4928308;28;10003;-74
2022/03/22 09:15:43;;;;;;;;;30.00;26.75;;;;;;;;4929688;28;9891;-75
2022/03/22 09:18:14;;;;;;;;;24.00;24.00;;;;;;;;4929238;28;9779;-75
2022/03/22 09:20:42;;;;;;;;;27.00;26.00;;;;;;;;4911641;28;10482;-75
2022/03/22 09:23:10;;;;;;;;;26.75;26.25;;;;;;;;4920248;29;9763;-74
2022/03/22 09:25:39;;;;;;;;;29.25;23.75;;;;;;;;4920038;29;9562;-76
2022/03/22 09:28:07;;;;;;;;;25.33;22.00;;;;;;;;4920769;29;9533;-75
2022/03/22 09:30:36;;;;;;;;;23.33;22.33;;;;;;;;4916769;28;9395;-75
2022/03/22 09:33:04;;;;;;;;;27.00;23.00;;;;;;;;4920388;28;9339;-79
2022/03/22 09:35:32;;;;;;;;;28.00;25.33;;;;;;;;4922822;28;10285;-77
2022/03/22 09:38:00;;;;;;;;;30.00;26.33;;;;;;;;4936807;28;9353;-76
2022/03/22 09:40:28;;;;;;;;;28.67;26.33;;;;;;;;4927191;28;9194;-78
2022/03/22 09:42:57;;;;;;;;;25.67;24.00;;;;;;;;4929315;28;9910;-76
2022/03/22 09:45:26;;;;;;;;;29.33;28.33;;;;;;;;4938888;28;9203;-76
2022/03/22 09:47:56;;;;;;;;;27.00;27.00;;;;;;;;4942373;28;9980;-76
2022/03/22 09:51:44;;;;;;;;;27.00;27.00;;;;;;;;4951077;28;9057;-78
2022/03/22 09:53:15;;;;;;;;;27.67;27.67;;;;;;;;4939229;28;8868;-76
2022/03/22 09:55:42;;;;;;;;;26.25;24.50;;;;;;;;4946109;28;9018;-82
2022/03/22 09:58:11;;;;;;;;;26.00;23.00;;;;;;;;4959761;28;8946;-78
2022/03/22 10:00:39;;;;;;;;;25.25;24.00;;;;;;;;4942711;28;8859;-76
2022/03/22 10:03:06;;;;;;;;;24.75;22.75;;;;;;;;4941934;28;8873;-77
2022/03/22 10:05:34;;;;;;;;;29.00;27.75;;;;;;;;4941381;28;8880;-76
2022/03/22 10:08:06;;;;;;;;;28.25;26.50;;;;;;;;4941794;28;8872;-77
2022/03/22 10:10:34;;;;;;;;;24.75;23.50;;;;;;;;4941052;28;8891;-77
2022/03/22 10:13:05;;;;;;;;;25.00;23.50;;;;;;;;4934942;28;8899;-77
2022/03/22 10:15:35;;;;;;;;;28.75;27.25;;;;;;;;4940281;28;8891;-76
2022/03/22 10:18:05;;;;;;;;;25.00;25.00;;;;;;;;4943175;28;8912;-76
2022/03/22 10:20:35;;;;;;;;;24.75;24.75;;;;;;;;4944723;28;8857;-78
2022/03/22 10:23:05;;;;;;;;;19.75;19.75;;;;;;;;4946483;28;8904;-78
2022/03/22 10:25:33;;;;;;;;;19.75;19.50;;;;;;;;4942081;28;8914;-75
2022/03/22 10:28:02;;;;;;;;;23.50;20.75;;;;;;;;4941306;28;8884;-79
2022/03/22 10:30:30;;;;;;;;;25.50;24.50;;;;;;;;4947876;28;8818;-73
2022/03/22 10:33:00;;;;;;;;;22.00;22.00;;;;;;;;4944980;28;8900;-76
2022/03/22 10:35:29;;;;;;;;;23.50;23.50;;;;;;;;4941876;28;8909;-77
2022/03/22 10:37:58;;;;;;;;;25.00;25.00;;;;;;;;4944554;28;8893;-78
2022/03/22 10:40:28;;;;;;;;;26.00;24.50;;;;;;;;4940928;28;8877;-79
2022/03/22 10:42:57;;;;;;;;;20.50;18.50;;;;;;;;4950552;28;8884;-78
2022/03/22 10:45:25;;;;;;;;;21.00;21.00;;;;;;;;4944884;28;8876;-79
2022/03/22 10:47:53;;;;;;;;;19.75;18.50;;;;;;;;4938923;28;8880;-79
2022/03/22 10:50:22;;;;;;;;;19.75;18.50;;;;;;;;4933645;28;8912;-79
2022/03/22 10:52:56;;;;;;;;;20.25;18.25;;;;;;;;4946337;28;8875;-81
2022/03/22 10:55:25;;;;;;;;;18.25;15.50;;;;;;;;4945196;28;10161;-80
2022/03/22 10:57:57;;;;;;;;;20.75;19.00;;;;;;;;4952545;28;8890;-79
2022/03/22 11:00:26;;;;;;;;;17.25;17.25;;;;;;;;4955504;28;8912;-79
2022/03/22 11:02:55;;;;;;;;;20.00;20.00;;;;;;;;4944833;28;8869;-79
2022/03/22 11:05:26;;;;;;;;;25.00;20.75;;;;;;;;4960160;28;8882;-80
2022/03/22 11:07:57;;;;;;;;;20.75;20.25;;;;;;;;4951491;28;8863;-80
2022/03/22 11:10:29;;;;;;;;;21.50;20.75;;;;;;;;4958167;28;8936;-80
2022/03/22 11:12:58;;;;;;;;;21.00;21.00;;;;;;;;4953660;28;8882;-80
2022/03/22 11:15:26;;;;;;;;;19.25;18.50;;;;;;;;4955463;28;8902;-80
2022/03/22 11:17:55;;;;;;;;;26.00;21.50;;;;;;;;4950688;28;8856;-81
2022/03/22 11:20:27;;;;;;;;;22.75;21.25;;;;;;;;4955843;28;8893;-80
2022/03/22 11:22:56;;;;;;;;;22.00;20.00;;;;;;;;4941411;28;9599;-80
2022/03/22 11:25:31;;;;;;;;;21.00;21.00;;;;;;;;4953753;28;8850;-80
2022/03/22 11:28:00;;;;;;;;;24.25;22.25;;;;;;;;4960544;28;8893;-81
2022/03/22 11:30:31;;;;;;;;;20.25;20.25;;;;;;;;4953459;28;8793;-80
2022/03/22 11:36:02;;;;;;;;;21.75;20.25;;;;;;;;4939588;28;8844;-86
2022/03/22 11:38:46;;;;;;;;;21.50;21.25;;;;;;;;4947316;28;8867;-76
2022/03/22 11:44:12;;;;;;;;;23.75;23.75;;;;;;;;4931579;28;8870;-83
2022/03/22 11:46:40;;;;;;;;;16.25;16.00;;;;;;;;4943173;28;8904;-79
2022/03/22 11:49:22;;;;;;;;;22.25;20.00;;;;;;;;4946353;28;8869;-82
2022/03/22 11:51:53;;;;;;;;;18.50;16.50;;;;;;;;4944072;28;8873;-83
2022/03/22 11:54:22;;;;;;;;;18.00;18.00;;;;;;;;4940815;28;8919;-83
2022/03/22 11:56:50;;;;;;;;;21.25;19.75;;;;;;;;4962603;28;8919;-83
2022/03/22 11:59:20;;;;;;;;;19.25;19.25;;;;;;;;4946074;28;8866;-82
2022/03/22 12:02:01;;;;;;;;;20.25;19.75;;;;;;;;4940767;28;8852;-82
2022/03/22 12:04:39;;;;;;;;;21.75;21.25;;;;;;;;4937837;28;8893;-80
2022/03/22 12:07:09;;;;;;;;;21.00;20.00;;;;;;;;4951507;28;8877;-81
2022/03/22 12:09:40;;;;;;;;;22.00;21.75;;;;;;;;4941873;28;8880;-78
2022/03/22 12:12:10;;;;;;;;;18.20;18.20;;;;;;;;4948950;28;8862;-84
2022/03/22 12:14:38;;;;;;;;;24.80;23.20;;;;;;;;4949008;28;8867;-82
2022/03/22 12:17:05;;;;;;;;;19.00;19.00;;;;;;;;4943793;28;8893;-82
2022/03/22 12:19:34;;;;;;;;;23.60;22.40;;;;;;;;4964181;28;8876;-84
2022/03/22 12:22:02;;;;;;;;;13.00;13.00;;;;;;;;4948114;28;8858;-78
2022/03/22 12:24:34;;;;;;;;;25.40;22.00;;;;;;;;4944926;28;8871;-81
2022/03/22 12:27:04;;;;;;;;;25.80;22.60;;;;;;;;4937625;28;8966;-79
2022/03/22 12:29:31;;;;;;;;;29.40;27.80;;;;;;;;4944253;28;8876;-83
2022/03/22 12:32:06;;;;;;;;;21.80;20.40;;;;;;;;4928088;28;8816;-80
2022/03/22 12:34:37;;;;;;;;;19.40;19.40;;;;;;;;4943831;28;9708;-81
2022/03/22 12:37:07;;;;;;;;;20.60;18.00;;;;;;;;4951421;28;8885;-80
2022/03/22 12:39:37;;;;;;;;;19.60;16.40;;;;;;;;4946942;28;8878;-81
2022/03/22 12:42:06;;;;;;;;;18.00;17.60;;;;;;;;4955915;28;8875;-82
2022/03/22 12:44:34;;;;;;;;;16.80;16.80;;;;;;;;4939518;28;8884;-81
2022/03/22 12:47:02;;;;;;;;;17.80;17.80;;;;;;;;4943069;28;8876;-82
2022/03/22 12:49:30;;;;;;;;;0.00;0.00;;;;;;;;4938185;28;8885;-83
2022/03/22 12:51:57;;;;;;;;;21.00;20.00;;;;;;;;4949554;28;8887;-83
2022/03/22 12:54:32;;;;;;;;;14.00;14.00;;;;;;;;4942366;28;8852;-82
2022/03/22 12:57:03;;;;;;;;;20.40;20.40;;;;;;;;4943697;28;8904;-84
2022/03/22 12:59:31;;;;;;;;;23.20;21.40;;;;;;;;4931993;28;8905;-83
2022/03/22 13:01:59;;;;;;;;;19.00;19.00;;;;;;;;4944205;28;8818;-83
2022/03/22 13:04:29;;;;;;;;;18.00;16.20;;;;;;;;4948131;28;8946;-83
2022/03/22 13:06:57;;;;;;;;;19.60;19.20;;;;;;;;4946936;28;9668;-83
2022/03/22 13:12:13;;;;;;;;;17.20;17.20;;;;;;;;4944745;28;8829;-83
2022/03/22 13:17:27;;;;;;;;;18.20;16.60;;;;;;;;4945425;28;8841;-83
2022/03/22 13:19:54;;;;;;;;;22.60;22.60;;;;;;;;4946923;28;8864;-83
2022/03/22 13:22:25;;;;;;;;;24.80;21.40;;;;;;;;4950435;28;8877;-83
2022/03/22 13:25:06;;;;;;;;;24.80;21.60;;;;;;;;4943976;28;9019;-84
2022/03/22 13:27:35;;;;;;;;;23.20;19.80;;;;;;;;4939702;28;8917;-84
2022/03/22 13:30:03;;;;;;;;;16.80;16.80;;;;;;;;4940255;28;9677;-82
2022/03/22 13:32:33;;;;;;;;;18.60;18.60;;;;;;;;4936881;28;8922;-82
2022/03/22 13:35:03;;;;;;;;;21.60;20.80;;;;;;;;4936239;28;8871;-82
2022/03/22 13:37:31;;;;;;;;;23.00;22.60;;;;;;;;4949582;28;8892;-83
2022/03/22 13:40:08;;;;;;;;;16.40;16.00;;;;;;;;4955483;28;8902;-84
2022/03/22 13:42:37;;;;;;;;;16.20;15.40;;;;;;;;4970193;28;8864;-84
2022/03/22 13:45:09;;;;;;;;;24.00;21.40;;;;;;;;4940344;28;8864;-83
2022/03/22 13:47:39;;;;;;;;;20.80;20.80;;;;;;;;4945284;28;8860;-84
2022/03/22 13:50:13;;;;;;;;;18.20;18.20;;;;;;;;4938499;28;10190;-78
2022/03/22 13:52:41;;;;;;;;;18.20;17.00;;;;;;;;4945727;28;8861;-82
2022/03/22 13:55:16;;;;;;;;;22.40;18.00;;;;;;;;4974073;28;9731;-82
2022/03/22 13:57:48;;;;;;;;;25.60;21.80;;;;;;;;4950635;28;9672;-82
2022/03/22 14:00:16;;;;;;;;;21.60;21.60;;;;;;;;4947883;28;8884;-82
2022/03/22 14:02:44;;;;;;;;;18.80;17.80;;;;;;;;4950756;28;8878;-82
2022/03/22 14:05:11;;;;;;;;;16.40;16.40;;;;;;;;4947958;28;9056;-81
2022/03/22 14:07:52;;;;;;;;;18.60;18.60;;;;;;;;4945557;28;8870;-81
2022/03/22 14:10:19;;;;;;;;;21.60;21.60;;;;;;;;4942754;28;8884;-82
2022/03/22 14:12:48;;;;;;;;;20.80;20.80;;;;;;;;4932159;28;8886;-82
2022/03/22 14:15:16;;;;;;;;;17.80;17.80;;;;;;;;4950287;28;8879;-83
2022/03/22 14:17:45;;;;;;;;;18.00;18.00;;;;;;;;4958392;28;8865;-82
2022/03/22 14:20:13;;;;;;;;;19.00;19.00;;;;;;;;4945490;28;8905;-83
2022/03/22 14:22:42;;;;;;;;;20.80;19.80;;;;;;;;4948510;28;8896;-82
2022/03/22 14:25:10;;;;;;;;;21.00;17.00;;;;;;;;4944852;28;8880;-81
2022/03/22 14:27:38;;;;;;;;;20.40;20.40;;;;;;;;4947739;28;8918;-83
2022/03/22 14:30:14;;;;;;;;;23.20;21.80;;;;;;;;4945488;28;8897;-82
2022/03/22 14:32:41;;;;;;;;;19.00;17.80;;;;;;;;4935217;28;8950;-83
2022/03/22 14:37:54;;;;;;;;;16.80;16.80;;;;;;;;4929896;28;8841;-82
2022/03/22 14:40:22;;;;;;;;;17.00;15.20;;;;;;;;4930665;28;9722;-83
2022/03/22 14:42:51;;;;;;;;;15.80;15.80;;;;;;;;4940931;28;8872;-83
2022/03/22 14:45:20;;;;;;;;;19.40;19.40;;;;;;;;4946404;28;8934;-83
2022/03/22 14:47:49;;;;;;;;;18.20;15.80;;;;;;;;4948589;28;8913;-81
2022/03/22 14:50:18;;;;;;;;;17.00;16.00;;;;;;;;4941039;28;8888;-83
2022/03/22 14:55:31;;;;;;;;;16.80;16.60;;;;;;;;4940545;28;8967;-82
2022/03/22 15:00:45;;;;;;;;;17.40;16.00;;;;;;;;4945097;28;8807;-81
2022/03/22 15:03:13;;;;;;;;;18.40;15.00;;;;;;;;4945516;28;9019;-79
2022/03/22 15:05:43;;;;;;;;;16.60;16.60;;;;;;;;4939811;28;8880;-83
2022/03/22 15:08:12;;;;;;;;;16.60;16.00;;;;;;;;4939894;28;8961;-82
2022/03/22 15:10:40;;;;;;;;;17.60;17.60;;;;;;;;4941081;28;8873;-81
2022/03/22 15:13:09;;;;;;;;;17.00;17.00;;;;;;;;4945327;28;8898;-82
2022/03/22 15:15:36;;;;;;;;;16.60;16.60;;;;;;;;4937500;28;8900;-83
2022/03/22 15:18:08;;;;;;;;;16.00;14.60;;;;;;;;4936716;28;8889;-83